Time;durP1;ratioP1;P1;durP2;ratioP2;P2;SDS_P1;SDS_P2;PMS_P1;PMS_P2;Temp;Humidity;BMP_temperature;BMP_pressure;BME280_temperature;BME280_humidity;BME280_pressure;Samples;Min_cycle;Max_cycle;Signal;HPM_P1;HPM_P2
2023/09/04 00:01:20;;;;;;;;;4.00;4.00;;;;;25.08;65.70;101883.00;4978025;28;45594;-71
2023/09/04 00:03:46;;;;;;;;;4.75;4.75;;;;;25.20;65.88;101903.91;4972140;28;46022;-71
2023/09/04 00:06:11;;;;;;;;;4.50;3.75;;;;;25.11;66.35;101891.84;4971737;28;45568;-70
2023/09/04 00:08:37;;;;;;;;;4.00;4.00;;;;;25.06;66.26;101898.63;4959751;28;45351;-71
2023/09/04 00:11:02;;;;;;;;;4.00;4.00;;;;;25.06;65.98;101895.88;4978856;28;45371;-71
2023/09/04 00:13:27;;;;;;;;;5.50;4.50;;;;;25.05;66.72;101907.81;4976872;28;45415;-70
2023/09/04 00:15:56;;;;;;;;;4.50;4.50;;;;;25.03;66.30;101907.06;4960292;28;45385;-70
2023/09/04 00:18:24;;;;;;;;;5.00;5.00;;;;;24.97;66.36;101900.19;4964364;28;45342;-70
2023/09/04 00:20:52;;;;;;;;;4.50;4.50;;;;;24.71;66.68;101853.88;4975551;28;45325;-71
2023/09/04 00:23:17;;;;;;;;;3.50;3.50;;;;;24.89;66.98;101881.66;4962671;28;46251;-71
2023/09/04 00:25:42;;;;;;;;;6.00;5.25;;;;;24.70;67.08;101870.38;4969463;28;45447;-71
2023/09/04 00:28:08;;;;;;;;;4.00;4.00;;;;;24.70;66.82;101879.41;4964035;28;45501;-70
2023/09/04 00:30:34;;;;;;;;;4.75;4.00;;;;;24.71;67.46;101885.78;4980684;28;45318;-71
2023/09/04 00:32:59;;;;;;;;;4.50;4.50;;;;;24.64;67.32;101881.72;4980268;28;46110;-70
2023/09/04 00:35:25;;;;;;;;;5.00;5.00;;;;;24.53;67.49;101858.81;4979323;28;45424;-71
2023/09/04 00:37:50;;;;;;;;;5.75;4.25;;;;;24.52;67.76;101867.97;4971958;28;45665;-70
2023/09/04 00:40:16;;;;;;;;;4.25;4.25;;;;;24.58;67.77;101892.13;4978780;28;45840;-71
2023/09/04 00:42:41;;;;;;;;;6.00;6.00;;;;;24.49;67.53;101870.94;4968845;28;45690;-70
2023/09/04 00:45:11;;;;;;;;;5.25;5.00;;;;;24.39;67.51;101851.66;4962854;28;45293;-70
2023/09/04 00:47:38;;;;;;;;;2.75;2.75;;;;;24.43;68.53;101874.13;4964634;28;45421;-71
2023/09/04 00:50:07;;;;;;;;;5.00;5.00;;;;;24.48;68.28;101885.56;4996557;28;46062;-71
2023/09/04 00:52:32;;;;;;;;;3.50;3.50;;;;;24.25;68.60;101840.88;4966714;28;45444;-70
2023/09/04 00:55:00;;;;;;;;;4.00;4.00;;;;;24.38;68.67;101871.72;4962618;28;45314;-70
2023/09/04 00:57:26;;;;;;;;;4.75;4.75;;;;;24.39;68.42;101873.47;4964031;28;45258;-70
2023/09/04 00:59:52;;;;;;;;;6.25;6.00;;;;;24.26;68.21;101858.09;4979026;28;45688;-71
2023/09/04 01:02:18;;;;;;;;;5.50;5.00;;;;;24.16;67.96;101847.00;4968816;28;46223;-70
2023/09/04 01:04:43;;;;;;;;;4.50;4.50;;;;;24.12;68.16;101840.00;4975908;28;45559;-70
2023/09/04 01:07:09;;;;;;;;;4.00;4.00;;;;;24.33;68.56;101878.50;4966796;28;45360;-70
2023/09/04 01:09:34;;;;;;;;;5.25;5.25;;;;;24.12;68.08;101842.75;4976596;28;45573;-70
2023/09/04 01:12:14;;;;;;;;;4.00;4.00;;;;;24.40;68.94;101879.78;4993366;28;46986;-70
2023/09/04 01:14:44;;;;;;;;;4.25;4.25;;;;;24.33;68.05;101867.59;4973057;28;45393;-70
2023/09/04 01:17:12;;;;;;;;;5.00;5.00;;;;;24.30;68.49;101871.41;4977186;28;45494;-70
2023/09/04 01:19:39;;;;;;;;;3.50;3.25;;;;;24.28;67.99;101867.94;4973449;28;45591;-70
2023/09/04 01:22:07;;;;;;;;;5.00;5.00;;;;;24.32;68.28;101863.97;4960499;28;48308;-70
2023/09/04 01:24:33;;;;;;;;;5.50;5.00;;;;;24.32;68.27;101861.25;4970339;28;45308;-70
2023/09/04 01:27:07;;;;;;;;;5.00;5.00;;;;;24.33;68.66;101864.88;4965072;28;45453;-70
2023/09/04 01:29:39;;;;;;;;;7.50;5.00;;;;;24.35;68.10;101866.47;4989016;28;46222;-70
2023/09/04 01:32:25;;;;;;;;;5.25;4.00;;;;;24.27;68.61;101849.81;4961721;28;45535;-70
2023/09/04 01:34:51;;;;;;;;;3.50;3.50;;;;;24.26;68.13;101850.81;4972105;28;45309;-70
2023/09/04 01:37:18;;;;;;;;;5.50;5.50;;;;;24.19;68.29;101841.28;4979854;28;45390;-70
2023/09/04 01:39:45;;;;;;;;;5.00;5.00;;;;;23.97;68.47;101810.16;4978385;28;45415;-70
2023/09/04 01:42:11;;;;;;;;;5.00;5.00;;;;;24.01;68.32;101817.13;4977895;28;46205;-70
2023/09/04 01:44:36;;;;;;;;;4.75;4.75;;;;;24.00;68.13;101825.41;4978474;28;45297;-70
2023/09/04 01:47:02;;;;;;;;;4.00;4.00;;;;;23.89;68.44;101798.94;4967863;28;45390;-70
2023/09/04 01:49:27;;;;;;;;;3.75;3.75;;;;;23.91;69.04;101813.31;4964500;28;45587;-70
2023/09/04 01:51:53;;;;;;;;;4.50;4.50;;;;;24.07;68.65;101842.19;4960165;28;48254;-70
2023/09/04 01:54:19;;;;;;;;;6.00;6.00;;;;;24.00;68.63;101834.44;4961298;28;45373;-70
2023/09/04 01:56:44;;;;;;;;;5.50;5.50;;;;;23.99;68.38;101830.00;4964932;28;45495;-70
2023/09/04 01:59:10;;;;;;;;;6.00;6.00;;;;;24.07;68.90;101840.34;4978744;28;45478;-70
2023/09/04 02:01:35;;;;;;;;;4.75;4.75;;;;;23.96;69.07;101819.31;4974575;28;47264;-70
2023/09/04 02:04:01;;;;;;;;;6.50;6.50;;;;;23.99;68.86;101820.94;4970557;28;45345;-70
2023/09/04 02:06:28;;;;;;;;;0.75;0.75;;;;;23.99;68.73;101824.53;4973003;28;45484;-70
2023/09/04 02:08:54;;;;;;;;;4.50;4.50;;;;;23.91;68.77;101807.00;4978313;28;46838;-70
2023/09/04 02:11:19;;;;;;;;;5.75;5.75;;;;;23.77;68.67;101781.56;4971429;28;45597;-70
2023/09/04 02:13:47;;;;;;;;;6.00;5.00;;;;;23.74;69.10;101778.16;4964216;28;45471;-70
2023/09/04 02:16:13;;;;;;;;;5.00;5.00;;;;;23.84;69.42;101792.94;4973004;28;45409;-70
2023/09/04 02:18:39;;;;;;;;;8.25;6.00;;;;;23.82;68.77;101792.16;4978830;28;45308;-70
2023/09/04 02:21:05;;;;;;;;;5.00;5.00;;;;;23.81;69.15;101793.97;4972419;28;46161;-70
2023/09/04 02:23:31;;;;;;;;;6.00;6.00;;;;;23.79;69.13;101800.50;4975853;28;45506;-70
2023/09/04 02:25:57;;;;;;;;;5.75;5.75;;;;;23.72;69.13;101783.72;4968231;28;45555;-70
2023/09/04 02:28:22;;;;;;;;;5.00;5.00;;;;;23.69;69.60;101783.97;4968671;28;45353;-70
2023/09/04 02:30:47;;;;;;;;;5.50;5.25;;;;;23.79;69.71;101803.25;4971993;28;48043;-70
2023/09/04 02:33:13;;;;;;;;;6.00;6.00;;;;;23.64;69.34;101786.16;4967223;28;45384;-71
2023/09/04 02:35:38;;;;;;;;;5.50;5.50;;;;;23.50;69.28;101762.59;4962315;28;45513;-70
2023/09/04 02:38:04;;;;;;;;;4.50;4.00;;;;;23.60;69.41;101771.00;4973101;28;45547;-70
2023/09/04 02:40:29;;;;;;;;;7.00;6.00;;;;;23.66;69.14;101792.38;4971075;28;46384;-70
2023/09/04 02:42:54;;;;;;;;;5.00;5.00;;;;;23.66;69.91;101801.41;4960827;28;45383;-70
2023/09/04 02:45:20;;;;;;;;;6.00;6.00;;;;;23.47;69.83;101760.06;4961065;28;45357;-70
2023/09/04 02:47:46;;;;;;;;;6.00;6.00;;;;;23.63;69.54;101790.72;4970301;28;46584;-70
2023/09/04 02:50:12;;;;;;;;;7.00;5.00;;;;;23.55;69.41;101765.00;4980123;28;45320;-70
2023/09/04 02:52:37;;;;;;;;;7.00;5.75;;;;;23.56;69.73;101767.63;4964791;28;45700;-70
2023/09/04 02:55:04;;;;;;;;;7.00;6.50;;;;;23.54;69.61;101764.13;4959682;28;45548;-70
2023/09/04 02:57:30;;;;;;;;;5.00;4.25;;;;;23.61;69.52;101770.88;4968407;28;45474;-70
2023/09/04 02:59:56;;;;;;;;;5.00;5.00;;;;;23.64;70.03;101775.25;4979627;28;45569;-70
2023/09/04 03:02:22;;;;;;;;;6.00;6.00;;;;;23.65;69.63;101782.44;4978154;28;45481;-70
2023/09/04 03:04:53;;;;;;;;;6.50;5.00;;;;;23.57;69.70;101771.19;4964766;28;45474;-70
2023/09/04 03:07:18;;;;;;;;;6.00;6.00;;;;;23.58;69.54;101776.53;4966725;28;45399;-70
2023/09/04 03:09:43;;;;;;;;;4.50;4.50;;;;;23.48;69.95;101765.41;4977337;28;46438;-70
2023/09/04 03:12:09;;;;;;;;;5.00;5.00;;;;;23.54;69.56;101766.84;4980233;28;45400;-70
2023/09/04 03:14:34;;;;;;;;;4.75;4.75;;;;;23.60;69.21;101785.47;4968660;28;45544;-70
2023/09/04 03:16:59;;;;;;;;;5.75;5.75;;;;;23.59;69.55;101775.56;4967604;28;47243;-71
2023/09/04 03:19:24;;;;;;;;;6.50;5.75;;;;;23.48;69.46;101770.00;4969247;28;45344;-70
2023/09/04 03:21:50;;;;;;;;;5.25;5.25;;;;;23.45;69.69;101759.31;4960133;28;45365;-70
2023/09/04 03:24:15;;;;;;;;;4.00;4.00;;;;;23.49;69.38;101769.03;4960579;28;45316;-70
2023/09/04 03:26:40;;;;;;;;;5.00;5.00;;;;;23.42;69.34;101759.53;4966698;28;45508;-70
2023/09/04 03:29:06;;;;;;;;;7.00;7.00;;;;;23.42;69.34;101751.34;4987428;28;47335;-70
2023/09/04 03:31:31;;;;;;;;;6.75;6.75;;;;;23.44;69.20;101753.00;4963943;28;45850;-70
2023/09/04 03:33:56;;;;;;;;;7.25;5.50;;;;;23.48;69.53;101759.09;4968848;28;45469;-70
2023/09/04 03:36:22;;;;;;;;;6.00;6.00;;;;;23.46;69.58;101753.75;4959974;28;45384;-70
2023/09/04 03:38:47;;;;;;;;;6.75;5.50;;;;;23.44;69.10;101752.16;4976987;28;46241;-70
2023/09/04 03:41:12;;;;;;;;;6.00;5.50;;;;;23.39;69.47;101751.56;4965365;28;45647;-70
2023/09/04 03:43:38;;;;;;;;;7.25;5.00;;;;;23.23;69.31;101733.59;4960107;28;45610;-70
2023/09/04 03:46:03;;;;;;;;;5.25;4.50;;;;;23.29;69.54;101749.50;4960062;28;45459;-70
2023/09/04 03:48:29;;;;;;;;;6.00;6.00;;;;;23.18;69.68;101738.50;4971251;28;46394;-70
2023/09/04 03:50:58;;;;;;;;;6.50;6.50;;;;;23.23;69.81;101749.94;4991289;28;45433;-70
2023/09/04 03:53:23;;;;;;;;;5.50;5.00;;;;;23.25;69.69;101763.44;4970643;28;45267;-70
2023/09/04 03:55:50;;;;;;;;;7.00;7.00;;;;;23.05;69.95;101738.44;4958472;28;48624;-70
2023/09/04 03:58:16;;;;;;;;;6.25;6.25;;;;;23.15;69.71;101768.66;4987132;28;47351;-70
2023/09/04 04:00:41;;;;;;;;;6.75;6.00;;;;;23.11;70.00;101770.72;4977763;28;51481;-70
2023/09/04 04:03:06;;;;;;;;;4.50;4.25;;;;;22.78;70.06;101721.31;4977432;28;45475;-70
2023/09/04 04:05:32;;;;;;;;;6.00;5.25;;;;;23.03;70.14;101766.75;4959733;28;45439;-70
2023/09/04 04:07:57;;;;;;;;;7.50;7.50;;;;;23.01;70.08;101761.41;4969026;28;46342;-70
2023/09/04 04:10:22;;;;;;;;;6.00;6.00;;;;;22.85;70.26;101734.38;4969911;28;45522;-70
2023/09/04 04:12:51;;;;;;;;;6.75;6.50;;;;;23.00;70.30;101756.06;4970671;28;45400;-70
2023/09/04 04:15:18;;;;;;;;;7.50;6.50;;;;;22.94;70.20;101754.66;4972748;28;45659;-70
2023/09/04 04:17:43;;;;;;;;;7.00;7.00;;;;;22.92;70.30;101753.88;4967279;28;46751;-70
2023/09/04 04:20:12;;;;;;;;;4.50;4.50;;;;;22.88;70.76;101747.78;4969454;28;45316;-70
2023/09/04 04:22:39;;;;;;;;;7.00;7.00;;;;;22.96;70.50;101760.88;4971075;28;45538;-70
2023/09/04 04:25:05;;;;;;;;;7.00;7.00;;;;;22.87;70.19;101745.16;4966589;28;45531;-70
2023/09/04 04:27:31;;;;;;;;;6.75;6.75;;;;;22.89;70.07;101756.84;4980991;28;47107;-70
2023/09/04 04:29:56;;;;;;;;;5.25;4.25;;;;;22.80;70.60;101746.56;4977278;28;45403;-70
2023/09/04 04:32:21;;;;;;;;;6.75;6.75;;;;;22.60;70.33;101720.69;4959090;28;45521;-70
2023/09/04 04:34:47;;;;;;;;;7.50;6.50;;;;;22.69;70.42;101744.59;4967481;28;45253;-70
2023/09/04 04:37:12;;;;;;;;;7.25;6.25;;;;;22.58;70.57;101727.09;4976361;28;47996;-70
2023/09/04 04:39:38;;;;;;;;;5.00;5.00;;;;;22.67;70.77;101735.63;4972250;28;45639;-70
2023/09/04 04:42:03;;;;;;;;;7.25;6.25;;;;;22.63;70.46;101734.09;4959485;28;45297;-70
2023/09/04 04:44:29;;;;;;;;;6.00;6.00;;;;;22.69;70.35;101739.13;4958013;28;45381;-70
2023/09/04 04:46:54;;;;;;;;;5.00;5.00;;;;;22.69;69.96;101758.19;4959860;28;46027;-70
2023/09/04 04:49:22;;;;;;;;;6.75;6.75;;;;;22.66;70.50;101742.06;4962845;28;45246;-70
2023/09/04 04:51:49;;;;;;;;;8.50;7.50;;;;;22.54;70.60;101733.75;4958140;28;45455;-70
2023/09/04 04:54:15;;;;;;;;;7.00;7.00;;;;;22.58;70.61;101738.00;4958855;28;45483;-70
2023/09/04 04:56:40;;;;;;;;;7.75;7.75;;;;;22.66;70.94;101747.50;4959375;28;45532;-70
2023/09/04 04:59:08;;;;;;;;;7.75;7.75;;;;;22.55;70.62;101729.16;4973928;28;45453;-70
2023/09/04 05:01:34;;;;;;;;;7.00;7.00;;;;;22.55;70.48;101727.34;4964760;28;45397;-70
2023/09/04 05:03:59;;;;;;;;;5.25;5.25;;;;;22.57;70.71;101743.56;4972380;28;45568;-70
2023/09/04 05:06:24;;;;;;;;;8.25;8.25;;;;;22.61;70.75;101750.53;4962498;28;45456;-70
2023/09/04 05:08:50;;;;;;;;;5.25;5.00;;;;;22.46;70.73;101721.63;4990419;28;45769;-70
2023/09/04 05:11:16;;;;;;;;;6.75;6.75;;;;;22.47;70.47;101726.97;4976673;28;45525;-70
2023/09/04 05:13:41;;;;;;;;;5.75;5.75;;;;;22.45;70.55;101730.75;4966618;28;45371;-70
2023/09/04 05:16:06;;;;;;;;;6.50;6.50;;;;;22.52;70.71;101743.88;4974684;28;46195;-70
2023/09/04 05:18:32;;;;;;;;;7.00;7.00;;;;;22.50;70.68;101743.09;4973085;28;46067;-70
2023/09/04 05:20:58;;;;;;;;;7.50;7.50;;;;;22.47;70.75;101745.13;4974526;28;45398;-70
2023/09/04 05:23:23;;;;;;;;;8.75;8.00;;;;;22.44;71.10;101753.53;4961792;28;45567;-70
2023/09/04 05:25:49;;;;;;;;;8.25;8.00;;;;;22.48;70.64;101768.66;4983784;28;45500;-70
2023/09/04 05:28:15;;;;;;;;;8.00;8.00;;;;;22.43;70.67;101768.94;4972410;28;45486;-70
2023/09/04 05:30:40;;;;;;;;;7.00;7.00;;;;;22.27;70.83;101749.13;4974192;28;45384;-70
2023/09/04 05:33:06;;;;;;;;;12.75;9.00;;;;;22.14;71.02;101732.78;4968495;28;45395;-70
2023/09/04 05:35:31;;;;;;;;;7.50;7.50;;;;;22.34;70.78;101764.13;4956425;28;47120;-70
2023/09/04 05:37:58;;;;;;;;;10.75;9.00;;;;;22.26;70.55;101752.84;4966852;28;45581;-70
2023/09/04 05:40:24;;;;;;;;;9.75;8.50;;;;;22.17;70.45;101736.16;4980767;28;45501;-70
2023/09/04 05:42:49;;;;;;;;;6.25;6.25;;;;;22.26;70.90;101758.28;4975419;28;45401;-70
2023/09/04 05:45:43;;;;;;;;;11.25;10.00;;;;;22.18;71.45;101742.47;4974186;28;47851;-68
2023/09/04 05:48:34;;;;;;;;;7.00;7.00;;;;;22.05;71.14;101733.38;4977718;28;46976;-68
2023/09/04 05:51:41;;;;;;;;;;;;;;;;;;;;;
2023/09/04 05:58:06;;;;;;;;;;;;;;;;;;;;;
2023/09/04 06:04:33;;;;;;;;;;;;;;;;;;;;;
2023/09/04 06:10:50;;;;;;;;;;;;;;;;;;;;;
2023/09/04 06:17:18;;;;;;;;;;;;;;;;;;;;;
2023/09/04 06:20:16;;;;;;;;;;;;;;;;;;;;;
2023/09/04 06:23:11;;;;;;;;;;;;;;;;;;;;;
2023/09/04 06:32:45;;;;;;;;;;;;;;;;;;;;;
2023/09/04 06:35:31;;;;;;;;;9.25;8.50;;;;;21.79;71.56;101741.38;4969518;28;75190;-69
2023/09/04 06:37:57;;;;;;;;;8.50;7.25;;;;;21.99;71.50;101781.72;4961061;28;45394;-67
2023/09/04 06:40:23;;;;;;;;;9.75;9.75;;;;;21.90;71.82;101756.97;5006424;28;45339;-67
2023/09/04 06:42:54;;;;;;;;;9.00;9.00;;;;;21.82;71.69;101757.50;4965868;28;45355;-70
2023/09/04 06:45:20;;;;;;;;;10.00;8.00;;;;;21.86;71.81;101758.16;4960873;28;46285;-69
2023/09/04 06:47:45;;;;;;;;;8.75;8.75;;;;;21.79;71.73;101742.22;4957794;28;45918;-69
2023/09/04 06:50:11;;;;;;;;;8.00;8.00;;;;;21.84;71.65;101744.66;4961753;28;45666;-69
2023/09/04 06:52:37;;;;;;;;;9.75;9.75;;;;;21.90;71.37;101752.44;4968791;28;45566;-69
2023/09/04 06:55:05;;;;;;;;;10.50;9.25;;;;;22.12;71.96;101784.53;4975012;28;45627;-69
2023/09/04 06:57:30;;;;;;;;;8.00;8.00;;;;;21.82;71.06;101727.59;4973871;28;45419;-69
2023/09/04 06:59:57;;;;;;;;;7.50;7.00;;;;;22.09;71.48;101771.13;4974354;28;45602;-69
2023/09/04 07:02:22;;;;;;;;;9.50;9.50;;;;;21.94;71.32;101751.25;4975309;28;45752;-69
2023/09/04 07:04:48;;;;;;;;;9.75;8.75;;;;;21.80;71.20;101732.22;4966118;28;46069;-69
2023/09/04 07:07:13;;;;;;;;;7.75;7.00;;;;;22.11;71.68;101780.06;4973409;28;45836;-68
2023/09/04 07:09:38;;;;;;;;;10.75;8.75;;;;;21.73;70.88;101717.28;4970449;28;45548;-69
2023/09/04 07:12:05;;;;;;;;;10.00;9.50;;;;;21.87;71.10;101747.19;4973615;28;45534;-69
2023/09/04 07:14:32;;;;;;;;;11.50;9.75;;;;;21.95;71.47;101758.44;4962414;28;47793;-68
2023/09/04 07:16:58;;;;;;;;;9.00;8.00;;;;;21.93;71.71;101748.63;4959501;28;45887;-69
2023/09/04 07:19:23;;;;;;;;;9.50;8.75;;;;;21.79;71.70;101736.78;4960001;28;45462;-69
2023/09/04 07:21:48;;;;;;;;;10.00;8.75;;;;;21.87;72.27;101740.84;4972554;28;45423;-69
2023/09/04 07:24:16;;;;;;;;;9.75;9.75;;;;;21.82;71.87;101742.03;4974418;28;46531;-68
2023/09/04 07:26:41;;;;;;;;;3.00;3.00;;;;;21.83;71.90;101734.75;4968377;28;45522;-69
2023/09/04 07:29:07;;;;;;;;;12.00;10.25;;;;;21.84;71.72;101729.22;4985813;28;45454;-68
2023/09/04 07:31:32;;;;;;;;;7.50;7.25;;;;;21.73;71.81;101711.88;4968241;28;45935;-69
2023/09/04 07:33:57;;;;;;;;;9.00;9.00;;;;;21.99;71.65;101750.97;4966690;28;45395;-70
2023/09/04 07:40:53;;;;;;;;;8.00;8.00;;;;;21.88;71.15;101715.44;4919364;28;45595;-73
2023/09/04 07:43:39;;;;;;;;;9.75;8.50;;;;;22.00;71.41;101734.56;4947887;28;45695;-66
2023/09/04 07:46:04;;;;;;;;;8.50;8.25;;;;;21.99;71.39;101721.91;4969126;28;47927;-66
2023/09/04 07:48:30;;;;;;;;;9.00;9.00;;;;;22.02;71.80;101718.16;4968990;28;45710;-64
2023/09/04 07:50:56;;;;;;;;;7.50;7.50;;;;;22.07;71.70;101724.16;4975191;28;45499;-65
2023/09/04 07:53:23;;;;;;;;;10.50;9.25;;;;;22.14;71.52;101728.19;4974645;28;45588;-65
2023/09/04 07:55:51;;;;;;;;;5.75;4.75;;;;;22.20;71.45;101735.06;4987533;28;47404;-65
2023/09/04 07:58:24;;;;;;;;;10.25;8.25;;;;;22.10;71.06;101707.63;4970740;28;45450;-65
2023/09/04 08:00:52;;;;;;;;;8.75;8.75;;;;;22.24;70.99;101739.34;4990845;28;45398;-65
2023/09/04 08:03:25;;;;;;;;;9.75;8.50;;;;;22.34;70.73;101743.25;4968968;28;45406;-65
2023/09/04 08:05:53;;;;;;;;;11.00;10.50;;;;;22.31;70.97;101729.84;4970418;28;48753;-65
2023/09/04 08:08:19;;;;;;;;;15.50;11.25;;;;;22.39;70.80;101735.63;4967316;28;45750;-65
2023/09/04 08:10:45;;;;;;;;;11.75;10.00;;;;;22.25;70.65;101711.16;4963469;28;45446;-65
2023/09/04 08:13:13;;;;;;;;;10.00;6.25;;;;;22.37;70.48;101734.00;4969599;28;45804;-65
2023/09/04 08:15:42;;;;;;;;;9.00;9.00;;;;;22.26;70.56;101707.47;4960411;28;47217;-65
2023/09/04 08:18:17;;;;;;;;;9.25;9.25;;;;;22.38;70.75;101725.72;4972529;28;46133;-65
2023/09/04 08:20:48;;;;;;;;;10.00;9.00;;;;;22.40;70.85;101728.34;4971294;28;45443;-65
2023/09/04 08:23:25;;;;;;;;;8.25;7.00;;;;;22.57;70.89;101738.97;4961970;28;45663;-65
2023/09/04 08:26:00;;;;;;;;;9.00;8.50;;;;;22.40;70.68;101701.13;4967805;28;45554;-65
2023/09/04 08:28:28;;;;;;;;;8.00;8.00;;;;;22.67;70.57;101741.97;4972101;28;45562;-66
2023/09/04 08:30:54;;;;;;;;;8.25;8.25;;;;;22.74;70.70;101740.56;4972174;28;45467;-65
2023/09/04 08:33:20;;;;;;;;;8.75;8.75;;;;;22.53;70.91;101709.34;4973079;28;45455;-65
2023/09/04 08:35:45;;;;;;;;;8.25;6.75;;;;;22.88;70.20;101755.06;4976459;28;46285;-65
2023/09/04 08:38:11;;;;;;;;;8.50;7.75;;;;;22.91;70.55;101750.28;4976863;28;45455;-65
2023/09/04 08:40:41;;;;;;;;;9.00;8.00;;;;;22.98;70.25;101744.44;4978385;28;45577;-66
2023/09/04 08:43:08;;;;;;;;;10.00;7.00;;;;;22.97;70.30;101731.78;4973590;28;45469;-65
2023/09/04 08:45:35;;;;;;;;;8.00;8.00;;;;;22.88;70.46;101715.09;4977255;28;45580;-65
2023/09/04 08:48:03;;;;;;;;;8.75;8.75;;;;;23.01;69.89;101719.72;4992782;28;45603;-65
2023/09/04 08:50:30;;;;;;;;;7.25;6.75;;;;;23.05;70.31;101724.81;4973445;28;45629;-65
2023/09/04 08:52:58;;;;;;;;;7.75;7.00;;;;;23.06;69.70;101710.28;4974195;28;45683;-65
2023/09/04 08:55:25;;;;;;;;;7.75;7.75;;;;;22.99;69.93;101684.44;4965629;28;45539;-66
2023/09/04 08:57:56;;;;;;;;;8.25;7.50;;;;;23.11;69.72;101685.44;4973108;28;45391;-66
2023/09/04 09:00:33;;;;;;;;;8.00;8.00;;;;;22.96;69.35;101653.81;4994520;28;45755;-66
2023/09/04 09:03:13;;;;;;;;;;;;;;;;;;;;;
2023/09/04 09:05:56;;;;;;;;;;;;;;;;;;;;;
2023/09/04 09:08:24;;;;;;;;;8.25;8.25;;;;;23.56;69.28;101717.69;4975078;28;72456;-66
2023/09/04 09:11:05;;;;;;;;;8.50;7.50;;;;;23.31;69.10;101671.28;4984441;28;45761;-66
2023/09/04 09:16:47;;;;;;;;;7.75;7.75;;;;;23.74;69.47;101718.19;4962431;28;46382;-66
2023/09/04 09:19:13;;;;;;;;;6.50;6.50;;;;;23.66;69.22;101684.19;4974826;28;45503;-66
2023/09/04 09:21:40;;;;;;;;;8.25;6.75;;;;;23.71;68.54;101677.56;4974277;28;45828;-66
2023/09/04 09:24:19;;;;;;;;;11.25;10.50;;;;;23.93;68.30;101713.19;4972894;28;46031;-67
2023/09/04 09:26:46;;;;;;;;;11.25;9.00;;;;;23.77;67.86;101677.09;4966086;28;45403;-67
2023/09/04 09:29:13;;;;;;;;;8.00;7.00;;;;;23.80;68.51;101663.22;4977192;28;45344;-66
2023/09/04 09:31:41;;;;;;;;;11.25;7.50;;;;;24.00;68.36;101681.72;4977134;28;45435;-66
2023/09/04 09:34:07;;;;;;;;;10.75;8.00;;;;;24.05;68.31;101665.91;4978772;28;45365;-66
2023/09/04 09:36:33;;;;;;;;;7.75;7.75;;;;;24.17;68.79;101671.44;4975638;28;45755;-66
2023/09/04 09:38:58;;;;;;;;;11.00;7.00;;;;;24.29;67.54;101669.63;4967474;28;45426;-66
2023/09/04 09:41:25;;;;;;;;;9.75;8.75;;;;;24.28;67.94;101657.00;4960504;28;45398;-66
2023/09/04 09:43:51;;;;;;;;;7.25;7.25;;;;;24.31;67.93;101662.22;4977563;28;46135;-66
2023/09/04 09:46:17;;;;;;;;;6.50;6.50;;;;;24.39;67.54;101668.81;4967817;28;46449;-65
2023/09/04 09:48:46;;;;;;;;;9.50;8.50;;;;;24.34;66.98;101646.47;4974746;28;45525;-66
2023/09/04 09:51:12;;;;;;;;;7.25;6.25;;;;;24.61;67.09;101672.66;4966254;28;45436;-66
2023/09/04 09:53:46;;;;;;;;;11.25;9.50;;;;;24.70;67.12;101676.53;4976703;28;45395;-66
2023/09/04 09:56:13;;;;;;;;;0.00;0.00;;;;;24.67;66.34;101666.72;4980024;28;47465;-66
2023/09/04 09:58:41;;;;;;;;;8.75;8.75;;;;;24.64;66.66;101649.69;4975929;28;45591;-66
2023/09/04 10:01:08;;;;;;;;;8.50;7.25;;;;;24.68;66.67;101640.31;4973774;28;45663;-66
2023/09/04 10:03:35;;;;;;;;;5.75;5.75;;;;;24.92;65.83;101665.66;4967901;28;45459;-66
2023/09/04 10:06:04;;;;;;;;;8.00;8.00;;;;;24.79;65.95;101626.66;4970246;28;47560;-65
2023/09/04 10:08:36;;;;;;;;;10.75;8.00;;;;;25.02;65.40;101643.97;4976909;28;46174;-66
2023/09/04 10:11:06;;;;;;;;;7.50;7.00;;;;;24.99;66.05;101632.41;4992721;28;45481;-66
2023/09/04 10:13:37;;;;;;;;;7.00;7.00;;;;;25.00;65.53;101626.81;4975287;28;45411;-66
2023/09/04 10:16:07;;;;;;;;;8.00;8.00;;;;;25.16;65.52;101648.34;4962855;28;46269;-66
2023/09/04 10:18:36;;;;;;;;;5.25;5.25;;;;;25.02;65.65;101616.66;4974328;28;45414;-66
2023/09/04 10:21:16;;;;;;;;;;;;;;;;;;;;;
2023/09/04 10:23:54;;;;;;;;;6.50;6.00;;;;;25.15;64.38;101603.75;4978063;28;71194;-67
2023/09/04 10:26:27;;;;;;;;;8.25;7.50;;;;;25.44;64.94;101638.81;4976176;28;47208;-67
2023/09/04 10:29:33;;;;;;;;;9.25;8.00;;;;;25.40;64.65;101604.53;4979037;28;46041;-66
2023/09/04 10:32:15;;;;;;;;;;;;;;;;;;;;;
2023/09/04 10:34:44;;;;;;;;;7.00;7.00;;;;;25.67;64.38;101622.38;4968813;28;72704;-68
2023/09/04 10:37:21;;;;;;;;;;;;;;;;;;;;;
2023/09/04 10:39:49;;;;;;;;;10.00;10.00;;;;;25.60;63.48;101589.22;4970334;28;72131;-68
2023/09/04 10:42:18;;;;;;;;;9.75;8.75;;;;;25.55;63.72;101555.91;4978578;28;45659;-68
2023/09/04 10:44:53;;;;;;;;;8.50;8.50;;;;;25.89;63.58;101596.84;4966659;28;45611;-67
2023/09/04 10:47:39;;;;;;;;;;;;;;;;;;;;;
2023/09/04 10:50:36;;;;;;;;;6.75;6.75;;;;;26.05;63.39;101582.78;4974822;28;72922;-68
2023/09/04 10:53:15;;;;;;;;;8.00;8.00;;;;;25.96;63.12;101561.66;4973272;28;45833;-67
2023/09/04 10:55:50;;;;;;;;;;;;;;;;;;;;;
2023/09/04 10:58:48;;;;;;;;;6.75;5.75;;;;;26.03;62.22;101554.69;4963381;28;75120;-67
2023/09/04 11:01:34;;;;;;;;;6.25;6.25;;;;;26.10;61.87;101547.69;4968368;28;45959;-67
2023/09/04 11:04:07;;;;;;;;;5.75;5.75;;;;;26.36;62.28;101582.88;4980732;28;45751;-67
2023/09/04 11:06:37;;;;;;;;;6.25;6.25;;;;;26.40;62.04;101576.16;4968646;28;45604;-66
2023/09/04 11:09:03;;;;;;;;;6.00;6.00;;;;;26.22;61.24;101519.25;4960885;28;45668;-66
2023/09/04 11:11:29;;;;;;;;;4.00;4.00;;;;;26.30;61.32;101534.16;4962678;28;45750;-66
2023/09/04 11:13:59;;;;;;;;;9.00;7.25;;;;;26.44;61.24;101540.16;4974998;28;45958;-66
2023/09/04 11:16:27;;;;;;;;;7.25;7.00;;;;;26.60;61.10;101549.78;4969293;28;45725;-66
2023/09/04 11:19:08;;;;;;;;;8.00;7.00;;;;;26.67;60.85;101550.13;4968884;28;47145;-66
2023/09/04 11:21:39;;;;;;;;;5.75;5.75;;;;;26.55;60.66;101511.00;4969753;28;45790;-67
2023/09/04 11:24:14;;;;;;;;;7.75;7.75;;;;;26.67;60.56;101531.84;4968962;28;45380;-67
2023/09/04 11:26:43;;;;;;;;;6.00;6.00;;;;;26.86;59.63;101535.66;4970182;28;46370;-67
2023/09/04 11:29:20;;;;;;;;;;;;;;;;;;;;;
2023/09/04 11:31:54;;;;;;;;;5.50;5.50;;;;;26.97;59.58;101530.09;4970238;28;71324;-67
2023/09/04 11:34:40;;;;;;;;;;;;;;;;;;;;;
2023/09/04 11:37:06;;;;;;;;;8.50;7.50;;;;;26.96;58.67;101504.59;4969794;28;72472;-68
2023/09/04 11:39:52;;;;;;;;;4.50;4.50;;;;;26.95;57.79;101491.03;4968081;28;47496;-68
2023/09/04 11:42:44;;;;;;;;;8.00;7.00;;;;;27.07;58.25;101492.66;4972420;28;45478;-68
2023/09/04 11:45:22;;;;;;;;;;;;;;;;;;;;;
2023/09/04 11:48:27;;;;;;;;;;;;;;;;;;;;;
2023/09/04 11:50:59;;;;;;;;;6.75;5.75;;;;;27.44;57.02;101513.97;4966491;28;75070;-67
2023/09/04 11:53:45;;;;;;;;;5.00;5.00;;;;;27.51;57.03;101508.78;4963240;28;45569;-68
2023/09/04 11:56:10;;;;;;;;;5.25;5.25;;;;;27.53;56.56;101504.03;4960901;28;45761;-69
2023/09/04 11:58:37;;;;;;;;;5.25;5.25;;;;;27.55;56.77;101499.28;4971902;28;45655;-68
2023/09/04 12:01:02;;;;;;;;;6.00;6.00;;;;;27.50;56.31;101482.41;4969647;28;45776;-68
2023/09/04 12:03:27;;;;;;;;;5.50;5.50;;;;;27.44;55.29;101459.16;4985277;28;45734;-68
2023/09/04 12:05:53;;;;;;;;;6.00;5.50;;;;;27.61;55.20;101484.13;4978970;28;45480;-68
2023/09/04 12:08:19;;;;;;;;;2.75;2.75;;;;;27.59;55.33;101477.94;4978025;28;45895;-68
2023/09/04 12:10:44;;;;;;;;;12.50;11.25;;;;;27.55;54.78;101458.16;4970113;28;45625;-69
2023/09/04 12:13:13;;;;;;;;;4.75;4.75;;;;;27.66;54.69;101462.63;4961062;28;45770;-69
2023/09/04 12:15:38;;;;;;;;;4.50;4.50;;;;;27.59;54.36;101426.69;4991037;28;45732;-69
2023/09/04 12:18:06;;;;;;;;;4.75;4.75;;;;;27.82;55.03;101464.81;4992309;28;45493;-69
2023/09/04 12:20:34;;;;;;;;;4.00;4.00;;;;;27.64;53.89;101429.84;4975001;28;47253;-69
2023/09/04 12:22:59;;;;;;;;;4.00;3.00;;;;;27.79;53.35;101441.25;4992178;28;45725;-69
2023/09/04 12:25:32;;;;;;;;;6.25;5.25;;;;;27.76;53.27;101440.69;4966211;28;45749;-69
2023/09/04 12:27:57;;;;;;;;;4.50;4.50;;;;;27.72;53.10;101426.41;4972787;28;45727;-69